Time;durP1;ratioP1;P1;durP2;ratioP2;P2;SDS_P1;SDS_P2;PMS_P1;PMS_P2;Temp;Humidity;BMP_temperature;BMP_pressure;BME280_temperature;BME280_humidity;BME280_pressure;Samples;Min_cycle;Max_cycle;Signal;HPM_P1;HPM_P2
2024/04/12 00:01:12;;;;;;;2.30;0.90;;;9.60;99.90;;;;;;5494491;26;20522;-80
2024/04/12 00:03:47;;;;;;;1.43;1.33;;;9.50;99.90;;;;;;5494379;26;20577;-80
2024/04/12 00:06:17;;;;;;;1.93;1.07;;;9.50;99.90;;;;;;5494190;26;20435;-80
2024/04/12 00:08:47;;;;;;;1.73;1.50;;;9.50;99.90;;;;;;5494353;26;20503;-80
2024/04/12 00:11:13;;;;;;;1.33;1.23;;;9.50;99.90;;;;;;5494435;26;20589;-80
2024/04/12 00:13:43;;;;;;;1.70;1.10;;;9.50;99.90;;;;;;5494220;26;20565;-80
2024/04/12 00:16:09;;;;;;;3.53;1.53;;;9.60;99.90;;;;;;5494044;26;20500;-80
2024/04/12 00:18:38;;;;;;;1.93;1.03;;;9.50;99.90;;;;;;5494081;26;20902;-80
2024/04/12 00:21:07;;;;;;;1.73;1.37;;;9.50;99.90;;;;;;5493717;26;20786;-81
2024/04/12 00:23:35;;;;;;;2.27;1.20;;;9.50;99.90;;;;;;5493765;26;21067;-80
2024/04/12 00:26:01;;;;;;;1.70;1.07;;;9.50;99.90;;;;;;5497773;26;20567;-80
2024/04/12 00:28:30;;;;;;;4.93;1.33;;;9.50;99.90;;;;;;5496870;26;20464;-80
2024/04/12 00:30:59;;;;;;;0.90;0.90;;;9.40;99.90;;;;;;5495820;26;20861;-80
2024/04/12 00:33:31;;;;;;;2.57;1.30;;;9.40;99.90;;;;;;5494595;26;20991;-81
2024/04/12 00:35:58;;;;;;;1.33;1.23;;;9.40;99.90;;;;;;5493955;26;20440;-80
2024/04/12 00:38:30;;;;;;;1.60;1.50;;;9.30;99.90;;;;;;5494075;26;20448;-80
2024/04/12 00:41:00;;;;;;;1.70;1.40;;;9.30;99.90;;;;;;5493679;26;21061;-80
2024/04/12 00:43:28;;;;;;;1.93;1.03;;;9.30;99.90;;;;;;5493499;26;20476;-80
2024/04/12 00:45:54;;;;;;;1.73;0.93;;;9.30;99.90;;;;;;5493621;26;20511;-80
2024/04/12 00:48:25;;;;;;;2.53;1.00;;;9.30;99.90;;;;;;5493591;26;20546;-80
2024/04/12 00:50:52;;;;;;;1.13;0.90;;;9.30;99.90;;;;;;5494181;26;20206;-80
2024/04/12 00:53:22;;;;;;;1.30;1.10;;;9.30;99.90;;;;;;5493863;26;20505;-80
2024/04/12 00:56:00;;;;;;;0.90;0.90;;;9.30;99.90;;;;;;5494276;26;20920;-80
2024/04/12 00:58:32;;;;;;;3.37;1.27;;;9.30;99.90;;;;;;5493210;26;20459;-81
2024/04/12 01:01:10;;;;;;;1.00;0.90;;;9.30;99.90;;;;;;5493352;26;20432;-80
2024/04/12 01:03:45;;;;;;;2.13;1.40;;;9.20;99.90;;;;;;5493276;26;21074;-81
2024/04/12 01:06:15;;;;;;;1.20;1.10;;;9.20;99.90;;;;;;5499693;26;20541;-79
2024/04/12 01:08:45;;;;;;;1.67;1.33;;;9.20;99.90;;;;;;5491187;26;20881;-80
2024/04/12 01:11:14;;;;;;;1.70;1.13;;;9.10;99.90;;;;;;5491024;26;20833;-80
2024/04/12 01:13:42;;;;;;;1.03;1.00;;;9.10;99.90;;;;;;5491254;26;20459;-80
2024/04/12 01:16:10;;;;;;;2.03;1.20;;;9.10;99.90;;;;;;5491469;26;20500;-80
2024/04/12 01:18:39;;;;;;;1.50;1.07;;;9.10;99.90;;;;;;5492041;26;20452;-80
2024/04/12 01:21:10;;;;;;;2.80;1.40;;;9.10;99.90;;;;;;5492218;26;20611;-80
2024/04/12 01:23:40;;;;;;;0.97;0.87;;;9.00;99.90;;;;;;5491920;26;20530;-80
2024/04/12 01:26:09;;;;;;;5.33;1.47;;;9.00;99.90;;;;;;5491880;26;20514;-80
2024/04/12 01:28:38;;;;;;;4.23;1.47;;;8.90;99.90;;;;;;5492149;26;20459;-80
2024/04/12 01:31:05;;;;;;;2.20;1.13;;;8.90;99.90;;;;;;5492175;26;20557;-80
2024/04/12 01:33:34;;;;;;;1.37;1.00;;;8.80;99.90;;;;;;5492367;26;20515;-80
2024/04/12 01:36:05;;;;;;;1.33;1.17;;;8.80;99.90;;;;;;5493205;26;20503;-80
2024/04/12 01:38:36;;;;;;;1.57;1.47;;;8.70;99.90;;;;;;5493074;26;20448;-80
2024/04/12 01:41:05;;;;;;;3.10;1.40;;;8.70;99.90;;;;;;5492740;26;20455;-80
2024/04/12 01:43:36;;;;;;;4.70;1.50;;;8.70;99.90;;;;;;5492251;26;20460;-80
2024/04/12 01:46:04;;;;;;;1.20;1.10;;;8.70;99.90;;;;;;5493301;26;20751;-80
2024/04/12 01:48:33;;;;;;;1.17;0.90;;;8.60;99.90;;;;;;5492505;26;20432;-80
2024/04/12 01:51:02;;;;;;;2.00;1.33;;;8.60;99.90;;;;;;5492459;26;20452;-80
2024/04/12 01:53:36;;;;;;;1.03;1.00;;;8.60;99.90;;;;;;5492456;26;20494;-80
2024/04/12 01:56:03;;;;;;;1.07;0.93;;;8.60;99.90;;;;;;5492691;26;20451;-80
2024/04/12 01:58:34;;;;;;;2.77;1.20;;;8.60;99.90;;;;;;5492742;26;20528;-80
2024/04/12 02:01:02;;;;;;;5.80;1.40;;;8.50;99.90;;;;;;5492755;26;20440;-81
2024/04/12 02:03:31;;;;;;;3.47;1.60;;;8.50;99.90;;;;;;5492604;26;20505;-80
2024/04/12 02:05:57;;;;;;;6.10;1.67;;;8.50;99.90;;;;;;5492820;26;20510;-80
2024/04/12 02:08:27;;;;;;;3.67;1.10;;;8.40;99.90;;;;;;5492189;26;20448;-80
2024/04/12 02:10:53;;;;;;;1.20;1.10;;;8.40;99.90;;;;;;5492614;26;20448;-80
2024/04/12 02:13:22;;;;;;;4.00;1.20;;;8.40;99.90;;;;;;5492597;26;20455;-80
2024/04/12 02:15:51;;;;;;;0.60;0.60;;;8.30;99.90;;;;;;5492246;26;20495;-80
2024/04/12 02:18:23;;;;;;;1.50;1.40;;;8.30;99.90;;;;;;5492193;26;20793;-80
2024/04/12 02:20:51;;;;;;;1.17;0.90;;;8.30;99.90;;;;;;5493538;26;20570;-80
2024/04/12 02:23:21;;;;;;;1.13;1.03;;;8.30;99.90;;;;;;5495712;26;20467;-80
2024/04/12 02:25:49;;;;;;;3.50;1.30;;;8.30;99.90;;;;;;5495829;26;20432;-80
2024/04/12 02:28:18;;;;;;;1.43;1.13;;;8.20;99.90;;;;;;5495103;26;20451;-80
2024/04/12 02:30:46;;;;;;;1.30;1.20;;;8.20;99.90;;;;;;5495711;26;20503;-80
2024/04/12 02:33:15;;;;;;;0.80;0.80;;;8.20;99.90;;;;;;5495559;26;20786;-80
2024/04/12 02:35:44;;;;;;;3.23;1.00;;;8.20;99.90;;;;;;5495459;26;20507;-80
2024/04/12 02:38:16;;;;;;;1.60;0.80;;;8.20;99.90;;;;;;5495723;26;20968;-80
2024/04/12 02:40:42;;;;;;;2.07;1.07;;;8.20;99.90;;;;;;5495572;26;20447;-80
2024/04/12 02:43:15;;;;;;;2.27;1.20;;;8.20;99.90;;;;;;5494994;26;20472;-80
2024/04/12 02:45:47;;;;;;;3.47;1.17;;;8.20;99.90;;;;;;5495436;26;20459;-80
2024/04/12 02:48:16;;;;;;;2.73;1.60;;;8.20;99.90;;;;;;5495447;26;20396;-80
2024/04/12 02:50:45;;;;;;;1.43;1.33;;;8.20;99.90;;;;;;5495678;26;20443;-80
2024/04/12 02:53:18;;;;;;;2.00;1.43;;;8.20;99.90;;;;;;5496026;26;20520;-80
2024/04/12 02:55:44;;;;;;;2.30;1.37;;;8.20;99.90;;;;;;5495653;26;20505;-80
2024/04/12 02:58:12;;;;;;;5.70;1.70;;;8.20;99.90;;;;;;5495028;26;20510;-80
2024/04/12 03:00:39;;;;;;;1.97;1.03;;;8.20;99.90;;;;;;5496535;26;20245;-80
2024/04/12 03:03:08;;;;;;;0.90;0.90;;;8.20;99.90;;;;;;5496554;26;20524;-80
2024/04/12 03:05:34;;;;;;;1.10;1.00;;;8.10;99.90;;;;;;5495996;26;20564;-80
2024/04/12 03:08:05;;;;;;;3.53;1.00;;;8.20;99.90;;;;;;5496049;26;20534;-80
2024/04/12 03:10:34;;;;;;;1.83;0.80;;;8.20;99.90;;;;;;5495290;26;20261;-80
2024/04/12 03:13:02;;;;;;;1.20;0.80;;;8.10;99.90;;;;;;5495363;26;20475;-80
2024/04/12 03:15:34;;;;;;;5.80;1.13;;;8.10;99.90;;;;;;5495092;26;20253;-80
2024/04/12 03:18:03;;;;;;;2.60;1.20;;;8.00;99.90;;;;;;5500439;26;20436;-81
2024/04/12 03:20:32;;;;;;;2.03;1.67;;;8.00;99.90;;;;;;5496845;26;20463;-79
2024/04/12 03:23:03;;;;;;;3.33;1.80;;;8.00;99.90;;;;;;5501911;26;20463;-80
2024/04/12 03:25:37;;;;;;;2.00;1.30;;;8.00;99.90;;;;;;5493493;26;20805;-80
2024/04/12 03:28:08;;;;;;;3.33;1.60;;;8.00;99.90;;;;;;5493740;26;20440;-80
2024/04/12 03:30:40;;;;;;;1.30;1.20;;;8.00;99.90;;;;;;5493154;26;20572;-80
2024/04/12 03:33:08;;;;;;;0.90;0.90;;;7.90;99.90;;;;;;5492106;26;20589;-80
2024/04/12 03:35:34;;;;;;;1.97;1.30;;;7.90;99.90;;;;;;5493049;26;20516;-80
2024/04/12 03:40:46;;;;;;;1.87;0.97;;;7.80;99.90;;;;;;5494275;26;20699;-80
2024/04/12 03:43:12;;;;;;;1.63;1.30;;;7.80;99.90;;;;;;5493477;26;20472;-80
2024/04/12 03:45:40;;;;;;;1.73;1.10;;;7.80;99.90;;;;;;5494174;26;20436;-80
2024/04/12 03:48:13;;;;;;;4.03;1.30;;;7.80;99.90;;;;;;5493467;26;20584;-80
2024/04/12 03:50:41;;;;;;;1.23;1.10;;;7.80;99.90;;;;;;5493485;26;20890;-80
2024/04/12 03:53:14;;;;;;;1.30;1.20;;;7.80;99.90;;;;;;5493724;26;20463;-80
2024/04/12 03:55:44;;;;;;;1.40;1.30;;;7.80;99.90;;;;;;5493937;26;20440;-80
2024/04/12 03:58:17;;;;;;;1.73;1.63;;;7.80;99.90;;;;;;5494053;26;20502;-80
2024/04/12 04:00:47;;;;;;;4.40;1.10;;;7.70;99.90;;;;;;5494074;26;20451;-80
2024/04/12 04:03:30;;;;;;;1.90;1.70;;;7.70;99.90;;;;;;5493376;26;21000;-80
2024/04/12 04:06:05;;;;;;;3.80;1.60;;;7.70;99.90;;;;;;5493653;26;20567;-80
2024/04/12 04:08:39;;;;;;;1.67;1.10;;;7.70;99.90;;;;;;5493734;26;20432;-80
2024/04/12 04:11:10;;;;;;;1.30;1.20;;;7.70;99.90;;;;;;5493604;26;20451;-80
2024/04/12 04:13:41;;;;;;;3.07;1.50;;;7.60;99.90;;;;;;5493837;26;20598;-80
2024/04/12 04:16:10;;;;;;;3.40;1.20;;;7.60;99.90;;;;;;5493954;26;20532;-79
2024/04/12 04:18:36;;;;;;;2.30;1.63;;;7.60;99.90;;;;;;5494210;26;20444;-80
2024/04/12 04:21:07;;;;;;;1.90;1.43;;;7.60;99.90;;;;;;5493614;26;20529;-80
2024/04/12 04:23:38;;;;;;;5.07;1.03;;;7.60;99.90;;;;;;5493602;26;20227;-80
2024/04/12 04:26:10;;;;;;;1.17;1.17;;;7.60;99.90;;;;;;5493396;26;20860;-80
2024/04/12 04:28:36;;;;;;;1.30;1.00;;;7.50;99.90;;;;;;5493345;26;20495;-80
2024/04/12 04:31:08;;;;;;;1.10;1.00;;;7.50;99.90;;;;;;5493756;26;20507;-80
2024/04/12 04:33:34;;;;;;;1.63;1.50;;;7.50;99.90;;;;;;5493514;26;20464;-80
2024/04/12 04:36:09;;;;;;;1.23;1.13;;;7.50;99.90;;;;;;5493740;26;20451;-80
2024/04/12 04:38:36;;;;;;;1.50;1.23;;;7.50;99.90;;;;;;5493882;26;20482;-80
2024/04/12 04:41:06;;;;;;;1.73;1.50;;;7.50;99.90;;;;;;5494031;26;20452;-80
2024/04/12 04:43:35;;;;;;;2.83;1.60;;;7.50;99.90;;;;;;5493075;26;20468;-80
2024/04/12 04:46:26;;;;;;;1.67;1.33;;;7.50;99.90;;;;;;5493920;26;20486;-80
2024/04/12 04:48:50;;;;;;;2.33;1.40;;;7.50;99.90;;;;;;5493533;26;20853;-80
2024/04/12 04:51:19;;;;;;;1.47;1.30;;;7.50;99.90;;;;;;5493917;26;20448;-80
2024/04/12 04:53:46;;;;;;;1.43;1.33;;;7.50;99.90;;;;;;5493937;26;20234;-80
2024/04/12 04:56:24;;;;;;;1.23;1.13;;;7.50;99.90;;;;;;5493983;26;20490;-80
2024/04/12 04:58:52;;;;;;;1.27;1.03;;;7.50;99.90;;;;;;5493944;26;20451;-80
2024/04/12 05:01:24;;;;;;;1.63;0.87;;;7.60;99.90;;;;;;5494041;26;20507;-80
2024/04/12 05:03:52;;;;;;;0.80;0.80;;;7.60;99.90;;;;;;5493800;26;20496;-80
2024/04/12 05:06:24;;;;;;;2.40;2.07;;;7.60;99.90;;;;;;5493728;26;20837;-80
2024/04/12 05:08:52;;;;;;;3.47;1.20;;;7.70;99.90;;;;;;5494005;26;20511;-80
2024/04/12 05:11:21;;;;;;;1.27;1.13;;;7.80;99.90;;;;;;5493204;26;21091;-80
2024/04/12 05:13:50;;;;;;;1.87;1.30;;;7.90;99.90;;;;;;5493677;26;21083;-80
2024/04/12 05:16:21;;;;;;;2.53;1.50;;;7.90;99.90;;;;;;5494066;26;20789;-80
2024/04/12 05:18:48;;;;;;;1.53;1.10;;;8.00;99.90;;;;;;5493765;26;20492;-80
2024/04/12 05:21:16;;;;;;;2.73;1.40;;;8.00;99.90;;;;;;5493602;26;20567;-80
2024/04/12 05:23:43;;;;;;;1.47;1.13;;;8.10;99.90;;;;;;5493677;26;20455;-80
2024/04/12 05:26:12;;;;;;;2.23;1.87;;;8.10;99.90;;;;;;5493589;26;20467;-80
2024/04/12 05:28:38;;;;;;;1.90;1.40;;;8.10;99.90;;;;;;5493424;26;20534;-80
2024/04/12 05:31:11;;;;;;;1.90;1.80;;;8.10;99.90;;;;;;5493852;26;20976;-80
2024/04/12 05:33:42;;;;;;;3.13;2.10;;;8.10;99.90;;;;;;5498419;26;20261;-80
2024/04/12 05:36:11;;;;;;;2.10;1.20;;;8.10;99.90;;;;;;5492882;26;20444;-80
2024/04/12 05:38:37;;;;;;;4.10;1.77;;;8.20;99.90;;;;;;5493733;26;20507;-80
2024/04/12 05:41:09;;;;;;;1.70;1.37;;;8.20;99.90;;;;;;5494179;26;20545;-80
2024/04/12 05:43:38;;;;;;;3.40;1.43;;;8.30;99.90;;;;;;5499476;26;20463;-80
2024/04/12 05:46:06;;;;;;;2.07;1.87;;;8.40;99.90;;;;;;5496858;26;20496;-80
2024/04/12 05:48:33;;;;;;;3.33;1.77;;;8.50;99.90;;;;;;5496574;26;20924;-80
2024/04/12 05:51:06;;;;;;;3.73;1.53;;;8.60;99.90;;;;;;5496625;26;20498;-80
2024/04/12 05:53:33;;;;;;;1.70;1.40;;;8.80;99.90;;;;;;5494535;26;20448;-80
2024/04/12 05:58:46;;;;;;;1.10;1.00;;;9.10;99.90;;;;;;5495483;26;20485;-80
2024/04/12 06:01:12;;;;;;;2.30;1.00;;;9.20;99.90;;;;;;5493131;26;20452;-80
2024/04/12 06:03:42;;;;;;;1.30;1.20;;;9.40;99.90;;;;;;5492983;26;20577;-81
2024/04/12 06:06:12;;;;;;;1.57;1.17;;;9.60;99.90;;;;;;5492814;26;20249;-80
2024/04/12 06:08:41;;;;;;;4.63;1.60;;;9.60;99.90;;;;;;5492996;26;20547;-80
2024/04/12 06:11:09;;;;;;;1.40;1.30;;;9.80;99.90;;;;;;5493377;26;20492;-81
2024/04/12 06:13:38;;;;;;;4.30;1.87;;;9.80;99.90;;;;;;5493110;26;20467;-80
2024/04/12 06:16:04;;;;;;;2.67;2.03;;;9.90;99.90;;;;;;5492693;26;20491;-80
2024/04/12 06:18:32;;;;;;;3.40;2.13;;;9.90;99.90;;;;;;5492205;26;20448;-80
2024/04/12 06:21:01;;;;;;;2.70;2.33;;;9.90;99.90;;;;;;5491915;26;20582;-79
2024/04/12 06:23:33;;;;;;;4.50;1.77;;;10.00;99.90;;;;;;5492184;26;21020;-79
2024/04/12 06:25:58;;;;;;;2.97;2.07;;;10.10;99.90;;;;;;5491734;26;20791;-80
2024/04/12 06:28:30;;;;;;;5.20;2.30;;;10.30;99.90;;;;;;5492197;26;20515;-80
2024/04/12 06:30:59;;;;;;;2.40;2.17;;;10.80;99.90;;;;;;5492704;26;20207;-79
2024/04/12 06:33:28;;;;;;;1.87;1.37;;;11.50;99.90;;;;;;5491831;26;20807;-79
2024/04/12 06:36:04;;;;;;;3.77;2.00;;;12.20;99.90;;;;;;5491945;26;21123;-80
2024/04/12 06:38:35;;;;;;;2.43;2.17;;;12.80;99.90;;;;;;5491987;26;20447;-80
2024/04/12 06:41:02;;;;;;;6.00;2.00;;;13.30;99.90;;;;;;5492284;26;20417;-80
2024/04/12 06:43:33;;;;;;;2.10;1.90;;;13.70;99.90;;;;;;5491393;26;20476;-80
2024/04/12 06:46:00;;;;;;;1.87;1.73;;;14.20;99.90;;;;;;5492185;26;20504;-80
2024/04/12 06:48:29;;;;;;;2.00;1.90;;;14.70;99.90;;;;;;5491465;26;20452;-80
2024/04/12 06:50:56;;;;;;;2.73;2.17;;;15.20;99.90;;;;;;5491857;26;20495;-80
2024/04/12 06:53:24;;;;;;;2.13;1.47;;;15.60;99.90;;;;;;5491888;26;20498;-80
2024/04/12 06:55:55;;;;;;;3.50;1.97;;;16.00;99.90;;;;;;5491765;26;20452;-80
2024/04/12 06:58:25;;;;;;;1.57;1.00;;;16.20;99.90;;;;;;5497361;26;20490;-80
2024/04/12 07:00:53;;;;;;;2.20;1.20;;;16.30;99.90;;;;;;5493452;26;20496;-81
2024/04/12 07:03:22;;;;;;;3.63;1.67;;;16.60;99.90;;;;;;5493254;26;20541;-80
2024/04/12 07:05:48;;;;;;;2.27;1.77;;;17.20;99.90;;;;;;5493284;26;20496;-81
2024/04/12 07:08:18;;;;;;;2.10;1.50;;;17.90;98.10;;;;;;5494994;26;20788;-81
2024/04/12 07:10:48;;;;;;;1.27;1.00;;;18.70;97.20;;;;;;5496169;26;20439;-81
2024/04/12 07:13:21;;;;;;;2.00;1.37;;;19.40;94.70;;;;;;5495840;26;20461;-81
2024/04/12 07:15:48;;;;;;;1.23;0.90;;;19.70;93.20;;;;;;5497067;26;20436;-81
2024/04/12 07:18:22;;;;;;;1.50;1.30;;;19.90;91.50;;;;;;5496127;26;20514;-81
2024/04/12 07:20:48;;;;;;;1.40;1.30;;;19.80;90.60;;;;;;5496563;26;20708;-80
2024/04/12 07:23:18;;;;;;;4.03;1.47;;;19.80;90.70;;;;;;5495931;26;20844;-81
2024/04/12 07:25:45;;;;;;;7.03;1.70;;;20.00;90.90;;;;;;5496247;26;20495;-83
2024/04/12 07:28:14;;;;;;;4.33;1.70;;;20.30;90.00;;;;;;5496084;26;20782;-81
2024/04/12 07:30:44;;;;;;;5.50;1.53;;;20.70;88.50;;;;;;5496791;26;20446;-81
2024/04/12 07:33:14;;;;;;;1.40;1.30;;;21.30;87.10;;;;;;5496426;26;20226;-81
2024/04/12 07:35:44;;;;;;;1.75;1.65;;;21.70;84.40;;;;;;5496654;26;20331;-81
2024/04/12 07:38:12;;;;;;;3.63;2.03;;;22.30;83.00;;;;;;5496063;26;20707;-81
2024/04/12 07:40:41;;;;;;;2.28;1.13;;;22.80;81.30;;;;;;5495701;26;20722;-81
2024/04/12 07:43:13;;;;;;;1.55;1.23;;;23.00;79.50;;;;;;5495339;26;20230;-81
2024/04/12 07:45:39;;;;;;;1.67;1.50;;;22.90;78.60;;;;;;5499163;26;20271;-81
2024/04/12 07:48:27;;;;;;;1.77;1.52;;;23.20;78.50;;;;;;5495507;26;20579;-81
2024/04/12 07:50:54;;;;;;;2.20;1.58;;;23.40;79.10;;;;;;5495490;26;20731;-82
2024/04/12 07:53:30;;;;;;;2.28;1.73;;;23.70;79.50;;;;;;5496423;26;20225;-81
2024/04/12 07:55:58;;;;;;;4.68;2.08;;;24.10;78.80;;;;;;5495436;26;20218;-81
2024/04/12 07:58:34;;;;;;;1.67;1.58;;;23.80;73.70;;;;;;5495648;26;20274;-82
2024/04/12 08:01:09;;;;;;;3.03;1.77;;;23.90;73.60;;;;;;5495314;26;20210;-81
2024/04/12 08:03:41;;;;;;;2.15;1.60;;;24.30;75.10;;;;;;5495072;26;20652;-81
2024/04/12 08:06:18;;;;;;;4.03;2.15;;;24.70;74.30;;;;;;5495460;26;20222;-80
2024/04/12 08:09:03;;;;;;;1.75;1.60;;;25.00;73.00;;;;;;5496350;26;20310;-81
2024/04/12 08:11:35;;;;;;;2.63;1.70;;;24.90;71.60;;;;;;5494796;26;20245;-81
2024/04/12 08:14:05;;;;;;;2.67;2.13;;;24.60;70.90;;;;;;5495441;26;20772;-81
2024/04/12 08:16:37;;;;;;;4.15;2.10;;;24.10;71.50;;;;;;5495757;26;20234;-81
2024/04/12 08:19:12;;;;;;;2.58;2.35;;;23.60;71.00;;;;;;5494840;26;20322;-81
2024/04/12 08:21:42;;;;;;;2.72;2.22;;;23.20;72.60;;;;;;5500095;26;20201;-81
2024/04/12 08:24:10;;;;;;;3.42;2.33;;;22.80;73.70;;;;;;5500937;26;20266;-81
2024/04/12 08:26:45;;;;;;;2.13;1.92;;;22.50;74.50;;;;;;5499607;26;20222;-81
2024/04/12 08:29:20;;;;;;;2.95;2.15;;;22.00;75.20;;;;;;5500167;26;20273;-81
2024/04/12 08:31:59;;;;;;;2.38;2.17;;;22.00;76.00;;;;;;5496397;26;20248;-80
2024/04/12 08:34:28;;;;;;;1.95;1.75;;;22.00;78.50;;;;;;5497647;26;20202;-81
2024/04/12 08:36:56;;;;;;;2.50;2.05;;;22.00;78.10;;;;;;5495200;26;20256;-81
2024/04/12 08:39:25;;;;;;;2.05;1.85;;;22.00;77.60;;;;;;5495854;26;20310;-81
2024/04/12 08:42:01;;;;;;;2.25;2.00;;;21.80;77.30;;;;;;5494415;26;20820;-81
2024/04/12 08:44:29;;;;;;;2.15;1.95;;;21.70;79.00;;;;;;5494945;26;20214;-81
2024/04/12 08:47:15;;;;;;;1.80;1.70;;;21.80;78.60;;;;;;5495327;26;20319;-81
2024/04/12 08:49:45;;;;;;;2.65;2.33;;;22.00;77.10;;;;;;5494841;26;20233;-80
2024/04/12 08:52:24;;;;;;;2.03;1.90;;;22.40;76.30;;;;;;5495238;26;20225;-80
2024/04/12 08:54:54;;;;;;;1.98;1.70;;;22.70;77.00;;;;;;5494041;26;20206;-81
2024/04/12 08:57:23;;;;;;;1.83;1.73;;;23.40;76.50;;;;;;5494629;26;20257;-81
2024/04/12 08:59:49;;;;;;;2.10;1.98;;;24.50;75.30;;;;;;5494738;26;20253;-81
2024/04/12 09:02:23;;;;;;;2.55;1.70;;;25.10;71.80;;;;;;5495666;26;20218;-81
2024/04/12 09:04:52;;;;;;;2.72;2.00;;;25.90;69.30;;;;;;5494470;26;20280;-80
2024/04/12 09:07:23;;;;;;;2.28;2.08;;;26.20;67.80;;;;;;5494236;26;20208;-80
2024/04/12 09:09:52;;;;;;;1.95;1.85;;;26.80;65.00;;;;;;5494125;26;20574;-81
2024/04/12 09:12:24;;;;;;;2.97;2.25;;;27.40;65.70;;;;;;5493934;26;20229;-81
2024/04/12 09:14:51;;;;;;;2.50;2.35;;;28.20;64.70;;;;;;5494068;26;20690;-81
2024/04/12 09:17:25;;;;;;;3.10;2.13;;;28.30;63.00;;;;;;5493986;26;20218;-80
2024/04/12 09:19:54;;;;;;;3.42;2.13;;;28.20;60.40;;;;;;5493862;26;20206;-81
2024/04/12 09:22:23;;;;;;;2.53;2.33;;;27.60;61.80;;;;;;5493820;26;20268;-80
2024/04/12 09:24:49;;;;;;;2.97;1.80;;;27.10;62.50;;;;;;5493194;26;20247;-80
2024/04/12 09:27:22;;;;;;;1.92;1.83;;;26.80;63.20;;;;;;5493787;26;20228;-80
2024/04/12 09:29:54;;;;;;;2.20;2.00;;;27.00;64.90;;;;;;5492966;26;20219;-81
2024/04/12 09:35:14;;;;;;;2.88;2.60;;;26.60;61.50;;;;;;5496473;26;20213;-80
2024/04/12 09:37:43;;;;;;;3.13;2.50;;;26.20;62.80;;;;;;5493394;26;20236;-80
2024/04/12 09:40:24;;;;;;;3.45;2.25;;;26.00;63.40;;;;;;5493197;26;20261;-81
2024/04/12 09:43:25;;;;;;;2.53;1.77;;;25.70;63.50;;;;;;5493569;26;20594;-80
2024/04/12 09:46:05;;;;;;;3.80;2.35;;;25.80;64.30;;;;;;5493754;26;20214;-80
2024/04/12 10:38:44;;;;;;;0.85;0.82;;;27.30;54.40;;;;;;5494738;26;20335;-80
2024/04/12 10:41:16;;;;;;;2.78;0.90;;;27.60;52.90;;;;;;5494794;26;20209;-80
2024/04/12 10:43:45;;;;;;;0.95;0.90;;;28.00;52.50;;;;;;5496598;26;20328;-80
2024/04/12 10:46:14;;;;;;;2.40;0.85;;;28.40;51.30;;;;;;5496267;26;20218;-80
2024/04/12 10:48:42;;;;;;;1.50;1.08;;;28.60;51.10;;;;;;5496228;26;20224;-80
2024/04/12 10:51:14;;;;;;;2.88;1.08;;;28.80;51.60;;;;;;5496193;26;20211;-80
2024/04/12 10:53:41;;;;;;;2.03;0.90;;;29.30;49.60;;;;;;5496200;26;20271;-80
2024/04/12 10:56:11;;;;;;;2.15;1.13;;;29.40;49.40;;;;;;5495992;26;20768;-80
2024/04/12 10:58:47;;;;;;;1.77;0.95;;;28.80;49.90;;;;;;5495673;26;20207;-80
2024/04/12 11:01:16;;;;;;;2.22;0.90;;;28.40;49.90;;;;;;5495841;26;20206;-79
2024/04/12 11:03:44;;;;;;;6.32;0.80;;;27.70;49.60;;;;;;5495483;26;20791;-80
2024/04/12 11:06:21;;;;;;;1.40;0.80;;;27.20;51.20;;;;;;5495742;26;20224;-80
2024/04/12 11:08:47;;;;;;;2.15;0.80;;;26.80;51.60;;;;;;5495913;26;20244;-80
2024/04/12 11:11:26;;;;;;;3.17;0.90;;;26.50;51.20;;;;;;5496238;26;20634;-79
2024/04/12 11:13:57;;;;;;;1.67;1.08;;;26.00;53.00;;;;;;5497142;26;20260;-80
2024/04/12 11:33:22;;;;;;;3.17;1.25;;;23.90;55.20;;;;;;5490140;26;20801;-80
2024/04/12 11:35:52;;;;;;;5.57;0.80;;;23.60;55.80;;;;;;5497202;26;20210;-80
2024/04/12 11:38:21;;;;;;;2.45;0.85;;;23.50;55.20;;;;;;5499357;26;20222;-80
2024/04/12 11:40:48;;;;;;;0.93;0.93;;;23.50;55.40;;;;;;5497452;26;20273;-80
2024/04/12 11:43:19;;;;;;;1.60;1.30;;;23.40;56.40;;;;;;5499548;26;20278;-80
2024/04/12 11:45:49;;;;;;;1.00;0.70;;;23.50;55.80;;;;;;5499283;26;20264;-81
2024/04/12 11:48:17;;;;;;;0.88;0.80;;;23.40;55.80;;;;;;5496944;26;20252;-79
2024/04/12 11:50:43;;;;;;;1.80;1.20;;;23.40;55.60;;;;;;5495166;26;20327;-80
2024/04/12 11:53:12;;;;;;;1.35;0.80;;;23.30;55.30;;;;;;5494672;26;20230;-80
2024/04/12 11:55:39;;;;;;;1.00;0.95;;;23.20;57.40;;;;;;5495461;26;20348;-80
2024/04/12 11:58:08;;;;;;;2.20;1.07;;;23.10;55.90;;;;;;5495911;26;20260;-80
2024/04/12 12:00:37;;;;;;;1.00;0.90;;;22.80;56.60;;;;;;5495182;26;20210;-80
2024/04/12 12:03:15;;;;;;;1.33;0.90;;;22.80;57.30;;;;;;5494948;26;20722;-80
2024/04/12 12:05:41;;;;;;;1.23;0.63;;;22.60;55.20;;;;;;5496632;26;20261;-79
2024/04/12 12:08:12;;;;;;;0.93;0.90;;;22.50;57.10;;;;;;5507473;26;20210;-79
2024/04/12 12:10:39;;;;;;;2.75;0.95;;;22.50;55.60;;;;;;5494625;26;20218;-80
2024/04/12 12:13:07;;;;;;;0.90;0.90;;;22.40;56.60;;;;;;5494619;26;20222;-79
2024/04/12 12:15:33;;;;;;;2.03;1.10;;;22.40;55.80;;;;;;5495059;26;20217;-80
2024/04/12 12:18:04;;;;;;;0.70;0.70;;;22.40;55.60;;;;;;5495282;26;20214;-79
2024/04/12 12:20:35;;;;;;;1.00;0.80;;;22.40;56.70;;;;;;5495174;26;20222;-80
2024/04/12 12:23:01;;;;;;;1.73;0.80;;;22.20;54.60;;;;;;5495498;26;20479;-80
2024/04/12 12:25:29;;;;;;;1.33;0.70;;;22.10;55.80;;;;;;5495828;26;20556;-79
2024/04/12 12:27:56;;;;;;;2.00;0.97;;;22.00;55.60;;;;;;5495571;26;20262;-79
2024/04/12 12:30:25;;;;;;;0.73;0.73;;;21.90;55.60;;;;;;5495176;26;20773;-80
2024/04/12 12:32:52;;;;;;;1.00;0.67;;;21.90;55.20;;;;;;5495059;26;20467;-79
2024/04/12 12:35:24;;;;;;;0.90;0.90;;;21.80;55.40;;;;;;5494384;26;20514;-78
2024/04/12 12:37:55;;;;;;;1.27;0.77;;;21.80;55.80;;;;;;5494219;26;20444;-78
2024/04/12 12:40:23;;;;;;;0.80;0.80;;;21.70;56.20;;;;;;5495689;26;20472;-79
2024/04/12 12:42:51;;;;;;;1.17;1.10;;;21.60;56.80;;;;;;5494357;26;20488;-79
2024/04/12 12:45:21;;;;;;;1.03;0.83;;;21.50;55.10;;;;;;5494520;26;20553;-79
2024/04/12 12:47:47;;;;;;;0.83;0.70;;;21.40;55.50;;;;;;5494072;26;20487;-79
2024/04/12 12:50:24;;;;;;;1.03;0.90;;;21.30;58.80;;;;;;5494532;26;20491;-79
2024/04/12 12:52:52;;;;;;;1.77;0.70;;;21.20;58.30;;;;;;5493918;26;20226;-79
2024/04/12 12:55:24;;;;;;;1.53;0.80;;;21.10;60.70;;;;;;5493725;26;20439;-79
2024/04/12 12:58:08;;;;;;;0.90;0.77;;;21.10;60.00;;;;;;5493859;26;20440;-79
2024/04/12 13:00:39;;;;;;;1.10;0.83;;;21.10;59.30;;;;;;5493029;26;20556;-79
2024/04/12 13:03:11;;;;;;;1.20;0.80;;;21.10;58.00;;;;;;5493459;26;20459;-79
2024/04/12 13:05:40;;;;;;;1.30;0.70;;;21.00;59.80;;;;;;5492912;26;20491;-79
2024/04/12 13:08:08;;;;;;;0.80;0.80;;;21.00;58.70;;;;;;5493171;26;20567;-79
2024/04/12 13:10:37;;;;;;;0.70;0.70;;;20.90;59.30;;;;;;5493142;26;20515;-79
2024/04/12 13:13:04;;;;;;;0.70;0.70;;;20.80;60.20;;;;;;5493438;26;20451;-79
2024/04/12 13:15:33;;;;;;;3.50;1.00;;;20.80;58.90;;;;;;5493475;26;20439;-79
2024/04/12 13:17:59;;;;;;;3.03;0.70;;;20.70;59.20;;;;;;5493595;26;20451;-79
2024/04/12 13:20:27;;;;;;;1.80;1.07;;;20.60;60.00;;;;;;5492892;26;20451;-79
2024/04/12 13:22:53;;;;;;;0.90;0.90;;;20.60;60.50;;;;;;5493208;26;20455;-79
2024/04/12 13:25:24;;;;;;;0.93;0.80;;;20.60;62.10;;;;;;5493348;26;20948;-79
2024/04/12 13:27:51;;;;;;;0.90;0.80;;;20.60;61.90;;;;;;5492930;26;20647;-79
2024/04/12 13:30:21;;;;;;;1.10;1.10;;;20.60;61.10;;;;;;5492774;26;20564;-79
2024/04/12 13:32:48;;;;;;;1.00;1.00;;;20.70;59.50;;;;;;5492677;26;20474;-79
2024/04/12 13:35:16;;;;;;;0.80;0.80;;;20.60;60.60;;;;;;5492825;26;20528;-79
2024/04/12 13:37:43;;;;;;;1.50;1.10;;;20.60;58.90;;;;;;5492763;26;20507;-79
2024/04/12 13:40:17;;;;;;;0.90;0.90;;;20.60;59.00;;;;;;5492609;26;20505;-80
2024/04/12 13:42:48;;;;;;;1.47;0.83;;;20.70;57.60;;;;;;5492688;26;20507;-79
2024/04/12 13:50:58;;;;;;;1.30;1.20;;;20.50;60.80;;;;;;5496923;26;20416;-80
2024/04/12 13:53:36;;;;;;;2.40;1.40;;;20.60;62.30;;;;;;5493099;26;21014;-80
2024/04/12 13:59:01;;;;;;;1.87;1.17;;;20.60;60.40;;;;;;5586941;25;20494;-79
2024/04/12 14:01:29;;;;;;;1.57;1.00;;;20.60;60.30;;;;;;5548839;25;20449;-80
2024/04/12 14:04:02;;;;;;;4.33;1.67;;;20.60;59.80;;;;;;5517020;25;20443;-80
2024/04/12 14:06:32;;;;;;;1.50;1.33;;;20.50;61.60;;;;;;5513242;25;20492;-80
2024/04/12 14:09:01;;;;;;;1.93;1.30;;;20.50;61.00;;;;;;5513403;25;20481;-80
2024/04/12 14:11:27;;;;;;;1.60;1.20;;;20.30;61.10;;;;;;5518719;25;20548;-80
2024/04/12 14:13:56;;;;;;;5.80;1.43;;;20.30;63.30;;;;;;5512739;25;20466;-80
2024/04/12 14:16:29;;;;;;;6.20;1.23;;;20.40;62.80;;;;;;5513079;25;20822;-80
2024/04/12 14:18:57;;;;;;;1.37;0.80;;;20.50;64.70;;;;;;5517673;25;20446;-80
2024/04/12 14:21:24;;;;;;;2.10;1.30;;;20.50;65.50;;;;;;5510539;25;20458;-80
2024/04/12 14:23:52;;;;;;;0.90;0.90;;;20.50;67.00;;;;;;5512350;25;20579;-80
2024/04/12 14:26:18;;;;;;;1.63;1.30;;;20.60;67.20;;;;;;5512433;25;20554;-81
2024/04/12 14:28:47;;;;;;;1.43;0.87;;;20.60;66.50;;;;;;5512313;25;20442;-81
2024/04/12 14:31:12;;;;;;;2.60;1.07;;;20.60;67.60;;;;;;5512029;25;20288;-80